createdAt,value
2022-09-14T00:05:16.934Z,19.28
2022-09-14T00:15:19.336Z,19.22
2022-09-14T00:25:21.578Z,19.18
2022-09-14T00:35:23.924Z,19.16
2022-09-14T00:45:26.625Z,19.13
2022-09-14T00:55:29.527Z,19.07
2022-09-14T01:05:55.690Z,19.05
2022-09-14T01:16:09.947Z,19.04
2022-09-14T01:26:42.493Z,18.98
2022-09-14T01:36:52.051Z,18.92
2022-09-14T01:46:57.927Z,18.84
2022-09-14T01:57:17.635Z,18.75
2022-09-14T02:07:20.342Z,18.64
2022-09-14T02:17:22.950Z,18.58
2022-09-14T02:27:25.820Z,18.54
2022-09-14T02:37:40.489Z,18.51
2022-09-14T02:47:42.636Z,18.46
2022-09-14T02:58:11.704Z,18.41
2022-09-14T03:08:14.689Z,18.36
2022-09-14T03:18:17.138Z,18.33
2022-09-14T03:28:19.327Z,18.28
2022-09-14T03:38:21.882Z,18.23
2022-09-14T03:48:24.338Z,18.18
2022-09-14T03:58:27.508Z,18.15
2022-09-14T04:08:29.825Z,18.02
2022-09-14T04:18:32.687Z,17.90
2022-09-14T04:28:34.971Z,17.72
2022-09-14T04:38:38.886Z,17.62
2022-09-14T04:48:41.417Z,17.58
2022-09-14T04:58:51.361Z,17.54
2022-09-14T05:08:55.003Z,17.50
2022-09-14T05:19:02.145Z,17.45
2022-09-14T05:29:04.798Z,17.43
2022-09-14T05:39:08.729Z,17.42
2022-09-14T05:49:11.010Z,17.49
2022-09-14T05:59:13.850Z,17.54
2022-09-14T06:09:16.951Z,17.56
2022-09-14T06:19:28.588Z,17.62
2022-09-14T06:29:31.356Z,17.76
2022-09-14T06:39:35.738Z,17.99
2022-09-14T06:49:48.022Z,18.12
2022-09-14T06:59:51.688Z,18.50
2022-09-14T07:09:54.355Z,19.05
2022-09-14T07:19:59.446Z,19.62
2022-09-14T07:30:03.491Z,19.96
2022-09-14T08:01:39.495Z,20.65
2022-09-14T08:11:42.934Z,21.11
2022-09-14T08:21:48.050Z,21.74
2022-09-14T08:31:57.697Z,22.14
2022-09-14T08:42:16.284Z,22.36
2022-09-14T08:52:34.186Z,22.25
2022-09-14T09:02:45.479Z,21.80
2022-09-14T09:12:54.376Z,21.63
2022-09-14T09:23:14.929Z,21.81
2022-09-14T09:33:24.841Z,22.04
2022-09-14T09:43:48.361Z,22.71
2022-09-14T09:54:08.834Z,23.04
2022-09-14T10:04:22.420Z,23.42
2022-09-14T10:14:36.380Z,23.20
2022-09-14T10:24:40.141Z,23.13
2022-09-14T10:34:43.558Z,23.64
2022-09-14T10:45:21.824Z,23.93
2022-09-14T10:55:51.000Z,24.24
2022-09-14T11:06:02.734Z,24.47
2022-09-14T11:16:28.817Z,24.44
2022-09-14T11:26:44.802Z,24.36
2022-09-14T11:36:57.328Z,24.44
2022-09-14T11:47:09.277Z,24.32
2022-09-14T11:57:19.513Z,24.77
2022-09-14T12:07:45.051Z,24.53
2022-09-14T12:17:51.044Z,24.30
2022-09-14T12:27:56.302Z,23.99
2022-09-14T12:38:01.287Z,23.66
2022-09-14T12:48:07.325Z,23.33
2022-09-14T12:58:43.739Z,22.88
2022-09-14T13:09:12.847Z,22.55
2022-09-14T13:19:35.027Z,22.34
2022-09-14T13:29:39.648Z,22.21
2022-09-14T13:39:53.931Z,22.04
2022-09-14T13:50:00.711Z,21.92
2022-09-14T14:00:19.255Z,21.81
2022-09-14T14:10:30.441Z,21.96
2022-09-14T14:20:36.788Z,22.33
2022-09-14T14:30:41.930Z,22.25
2022-09-14T14:40:46.758Z,21.81
2022-09-14T14:50:51.974Z,21.36
2022-09-14T15:00:56.534Z,21.20
2022-09-14T15:10:59.436Z,21.45
2022-09-14T15:21:02.015Z,21.52
2022-09-14T15:31:08.005Z,21.43
2022-09-14T15:41:13.305Z,21.35
2022-09-14T15:51:17.676Z,21.28
2022-09-14T16:01:20.660Z,21.09
2022-09-14T16:11:23.220Z,20.89
2022-09-14T16:21:28.415Z,20.72
2022-09-14T16:31:33.862Z,20.56
2022-09-14T16:41:38.490Z,20.29
2022-09-14T16:51:41.561Z,20.14
2022-09-14T17:01:47.151Z,20.01
2022-09-14T17:11:54.375Z,19.87
2022-09-14T17:21:57.166Z,19.75
2022-09-14T17:31:59.997Z,19.61
2022-09-14T17:42:02.823Z,19.50
2022-09-14T17:52:05.779Z,19.40
2022-09-14T18:02:09.921Z,19.35
2022-09-14T18:12:16.272Z,19.28
2022-09-14T18:22:19.020Z,19.20
2022-09-14T18:32:21.573Z,19.03
2022-09-14T18:42:24.160Z,18.79
2022-09-14T18:52:26.663Z,18.53
2022-09-14T19:02:29.202Z,18.25
2022-09-14T19:12:32.355Z,18.02
2022-09-14T19:22:35.690Z,17.85
2022-09-14T19:32:38.996Z,17.55
2022-09-14T19:42:41.844Z,17.42
2022-09-14T19:52:44.830Z,17.36
2022-09-14T20:02:47.588Z,17.30
2022-09-14T20:12:50.535Z,17.22
2022-09-14T20:22:53.147Z,17.13
2022-09-14T20:32:55.693Z,17.01
2022-09-14T20:43:00.926Z,16.91
2022-09-14T20:53:03.491Z,16.88
2022-09-14T21:03:06.474Z,16.87
2022-09-14T21:13:09.141Z,16.82
2022-09-14T21:23:11.495Z,16.83
2022-09-14T21:33:14.097Z,16.80
2022-09-14T21:43:16.415Z,16.69
2022-09-14T21:53:18.954Z,16.69
2022-09-14T22:03:21.403Z,16.59
2022-09-14T22:13:23.739Z,16.59
2022-09-14T22:23:26.231Z,16.56
2022-09-14T22:33:29.361Z,16.56
2022-09-14T22:43:33.595Z,16.54
2022-09-14T22:53:36.498Z,16.56
2022-09-14T23:03:38.915Z,16.54
2022-09-14T23:13:42.872Z,16.54
2022-09-14T23:23:45.014Z,16.58
2022-09-14T23:34:00.954Z,16.59
2022-09-14T23:44:03.539Z,16.54
2022-09-14T23:54:06.868Z,16.53
